ESSV/VBY METAR and TAF weather

Enter ICAO airport designator
Station Type Date Time Source
ESSV METAR 2020/02/21 00:20 UTC NOAA

ESSV 210020Z AUTO 18019KT 9999 OVC005/// 04/03 Q1000


Station Type Date Time Source
ESSV Decoded METAR 2020/02/21 00:20 UTC NOAA

Visby Flygplats, Sweden (ESSV) 57-40N 018-21E 47M
Feb 20, 2020 - 07:20 PM EST / 2020.02.21 0020 UTC
Wind: from the S (180 degrees) at 22 MPH (19 KT):0
Visibility: greater than 7 mile(s):0
Sky conditions: overcast
Temperature: 39 F (4 C)
Dew Point: 37 F (3 C)
Relative Humidity: 93%
Pressure (altimeter): 29.53 in. Hg (1000 hPa)
ob: ESSV 210020Z AUTO 18019KT 9999 OVC005/// 04/03 Q1000
cycle: 0

Station Type Date Time Source
ESSV TAF 2017/09/20 09:39 UTC NOAA

TAF COR TAF COR ESSV 200840Z 2009/2021 10005KT 9999 BKN030 PROB40 2009/2016 4000 TS SHRA BKN015CB

Example: see airport list